Yellow Mule RAWS (NWS)

Jump to table bottom
Date/Time Wind Direction Wind Speed knots Wind Gust knots RH % Accumulated Precip Inches Air Temp Fahrenheit
2022-05-29 02:04 SSE 6 9 100 4.43 29
2022-05-29 01:04 S 5 11 100 4.43 30
2022-05-29 00:04 S 9 15 100 4.43 30
2022-05-28 23:04 SSW 5 12 100 4.42 30
2022-05-28 22:04 SSW 10 16 100 4.42 31
2022-05-28 21:04 S 7 10 100 4.42 30
2022-05-28 20:04 SSW 4 13 99 4.42 31
2022-05-28 19:04 SW 10 14 97 4.42 33
2022-05-28 18:04 S 6 10 95 4.42 35
2022-05-28 17:04 S 5 13 96 4.41 34
2022-05-28 16:04 SSW 10 14 95 4.38 33
2022-05-28 15:04 SSE 5 8 84 4.35 38
2022-05-28 14:04 S 4 7 89 4.35 36
2022-05-28 13:04 SSW 3 6 82 4.33 41
2022-05-28 12:04 SW 4 10 85 4.33 38
2022-05-28 11:04 SW 7 12 91 4.33 35
2022-05-28 10:04 SW 5 8 95 4.27 34
2022-05-28 09:04 S 3 5 99 4.24 34
2022-05-28 08:04 S 4 5 99 4.2 34
2022-05-28 07:04 SSE 3 6 100 4.16 33
2022-05-28 06:04 SSW 3 13 99 4.12 34
2022-05-28 05:04 SSW 10 16 99 4.09 33
2022-05-28 04:04 S 10 18 88 4.06 35
2022-05-28 03:04 SSW 9 23 98 4.06 34
2022-05-28 02:04 SSW 17 24 95 4.03 35
2022-05-28 01:04 SSW 15 21 91 3.95 36
2022-05-28 00:04 SSW 13 32 69 3.89 40
2022-05-27 23:04 S 22 33 59 3.89 43
2022-05-27 22:04 SSW 10 15 65 3.89 42
2022-05-27 21:04 SSW 10 20 63 3.89 43
2022-05-27 20:04 SSW 13 19 65 3.89 42
2022-05-27 19:04 SSW 10 18 57 3.89 45
2022-05-27 18:04 SSW 11 26 60 3.89 44
2022-05-27 17:04 SSE 12 22 46 3.88 49
2022-05-27 16:04 SSW 10 23 45 3.88 50
2022-05-27 15:04 SW 15 26 50 3.88 48
2022-05-27 14:04 SW 17 24 53 3.88 47
2022-05-27 13:04 SW 14 30 58 3.88 44
2022-05-27 12:04 SW 13 24 52 3.88 47
2022-05-27 11:04 SSW 15 30 64 3.88 46
2022-05-27 10:04 SSW 17 25 64 3.87 46
2022-05-27 09:04 SSW 15 22 81 3.87 41
2022-05-27 08:04 S 10 21 89 3.87 40
2022-05-27 07:04 SSW 19 28 99 3.86 36
2022-05-27 06:04 SSW 16 38 95 3.78 37
2022-05-27 05:04 SSE 15 30 79 3.75 41
2022-05-27 04:04 SSE 18 31 66 3.75 45
2022-05-27 03:04 SSE 13 24 66 3.75 45
2022-05-27 02:04 SSE 12 28 61 3.75 46
2022-05-27 01:04 SSE 10 15 65 3.75 44